createdAt,value
2022-10-22T00:02:08.900Z,2.56
2022-10-22T00:04:36.095Z,1.80
2022-10-22T00:07:04.759Z,1.46
2022-10-22T00:09:31.899Z,1.39
2022-10-22T00:11:59.059Z,1.93
2022-10-22T00:14:26.119Z,2.77
2022-10-22T00:16:53.269Z,2.81
2022-10-22T00:19:20.331Z,3.39
2022-10-22T00:21:47.398Z,3.61
2022-10-22T00:24:16.101Z,3.16
2022-10-22T00:26:43.141Z,2.11
2022-10-22T00:29:10.318Z,1.55
2022-10-22T00:31:37.478Z,1.80
2022-10-22T00:34:04.620Z,1.52
2022-10-22T00:36:31.699Z,1.48
2022-10-22T00:38:58.799Z,1.65
2022-10-22T00:41:27.399Z,1.21
2022-10-22T00:43:57.438Z,1.29
2022-10-22T00:46:24.632Z,1.36
2022-10-22T00:48:53.032Z,1.13
2022-10-22T00:51:24.643Z,1.27
2022-10-22T00:53:57.233Z,1.08
2022-10-22T00:56:25.096Z,1.23
2022-10-22T00:58:59.727Z,1.11
2022-10-22T01:01:31.356Z,1.17
2022-10-22T01:03:59.434Z,1.25
2022-10-22T01:06:29.572Z,1.46
2022-10-22T01:09:10.033Z,1.85
2022-10-22T01:11:52.574Z,2.29
2022-10-22T01:14:33.499Z,2.03
2022-10-22T01:17:08.049Z,1.56
2022-10-22T01:19:57.956Z,1.59
2022-10-22T01:22:32.604Z,1.62
2022-10-22T01:25:08.025Z,1.25
2022-10-22T01:28:01.689Z,1.42
2022-10-22T01:30:30.406Z,1.43
2022-10-22T01:33:03.378Z,1.49
2022-10-22T01:35:35.970Z,1.26
2022-10-22T01:38:09.092Z,0.89
2022-10-22T01:40:37.547Z,1.24
2022-10-22T01:43:07.195Z,1.18
2022-10-22T01:45:40.566Z,0.95
2022-10-22T01:48:26.206Z,0.95
2022-10-22T01:51:19.305Z,1.05
2022-10-22T01:54:00.147Z,0.97
2022-10-22T01:56:56.987Z,0.83
2022-10-22T01:59:40.027Z,1.03
2022-10-22T02:02:23.725Z,1.10
2022-10-22T02:04:58.869Z,1.16
2022-10-22T02:07:31.807Z,1.08
2022-10-22T02:10:01.226Z,1.08
2022-10-22T02:12:32.409Z,1.17
2022-10-22T02:15:03.050Z,1.26
2022-10-22T02:17:37.486Z,1.16
2022-10-22T02:20:12.685Z,1.10
2022-10-22T02:22:40.215Z,1.20
2022-10-22T02:25:09.509Z,1.66
2022-10-22T02:27:44.007Z,1.46
2022-10-22T02:32:50.367Z,1.54
2022-10-22T02:35:22.290Z,1.60
2022-10-22T02:37:52.267Z,1.45
2022-10-22T02:40:21.227Z,1.95
2022-10-22T02:42:50.565Z,1.74
2022-10-22T02:45:19.948Z,1.73
2022-10-22T02:47:49.089Z,1.63
2022-10-22T02:50:17.077Z,1.73
2022-10-22T02:52:44.249Z,1.91
2022-10-22T02:55:11.366Z,2.01
2022-10-22T02:57:38.624Z,2.11
2022-10-22T03:00:07.899Z,2.07
2022-10-22T03:02:34.926Z,2.49
2022-10-22T03:05:04.153Z,2.18
2022-10-22T03:07:31.368Z,2.54
2022-10-22T03:09:58.507Z,2.35
2022-10-22T03:12:25.708Z,2.42
2022-10-22T03:14:52.747Z,2.73
2022-10-22T03:17:19.825Z,3.07
2022-10-22T03:19:46.909Z,2.92
2022-10-22T03:22:20.426Z,2.94
2022-10-22T03:24:53.329Z,3.19
2022-10-22T03:27:22.827Z,3.05
2022-10-22T03:29:52.707Z,3.44
2022-10-22T03:32:19.908Z,3.33
2022-10-22T03:34:47.152Z,3.16
2022-10-22T03:37:16.688Z,3.39
2022-10-22T03:39:44.330Z,3.87
2022-10-22T03:42:11.690Z,4.33
2022-10-22T03:44:40.567Z,3.94
2022-10-22T03:47:08.591Z,3.64
2022-10-22T03:49:36.266Z,2.88
2022-10-22T03:52:07.747Z,3.09
2022-10-22T03:57:10.667Z,2.60
2022-10-22T03:59:39.646Z,2.54
2022-10-22T04:02:06.727Z,2.77
2022-10-22T04:04:34.329Z,2.44
2022-10-22T04:07:01.365Z,2.35
2022-10-22T04:09:31.368Z,2.25
2022-10-22T04:12:00.266Z,2.56
2022-10-22T04:14:27.307Z,2.26
2022-10-22T04:16:54.747Z,2.22
2022-10-22T04:19:21.888Z,2.22
2022-10-22T04:21:48.911Z,2.25
2022-10-22T04:24:16.427Z,1.92
2022-10-22T04:26:44.048Z,1.79
2022-10-22T04:29:15.997Z,1.72
2022-10-22T04:31:43.768Z,1.48
2022-10-22T04:34:10.910Z,1.50
2022-10-22T04:36:37.940Z,1.54
2022-10-22T04:39:05.468Z,1.42
2022-10-22T04:41:34.349Z,1.58
2022-10-22T04:44:01.825Z,1.32
2022-10-22T04:46:32.985Z,1.39
2022-10-22T04:49:00.273Z,1.33
2022-10-22T04:51:27.806Z,1.37
2022-10-22T04:53:55.349Z,1.24
2022-10-22T04:56:25.688Z,1.22
2022-10-22T04:58:55.166Z,1.20
2022-10-22T05:01:24.490Z,1.34
2022-10-22T05:03:55.246Z,1.44
2022-10-22T05:06:23.749Z,1.15
2022-10-22T05:08:55.340Z,1.22
2022-10-22T05:11:25.227Z,1.41
2022-10-22T05:13:52.448Z,1.25
2022-10-22T05:16:19.546Z,1.10
2022-10-22T05:18:46.587Z,1.12
2022-10-22T05:21:17.545Z,1.07
2022-10-22T05:23:46.286Z,1.31
2022-10-22T05:26:16.190Z,1.11
2022-10-22T05:28:43.746Z,1.00
2022-10-22T05:31:12.928Z,1.03
2022-10-22T05:33:40.748Z,0.94
2022-10-22T05:36:10.910Z,0.85
2022-10-22T05:38:39.328Z,1.02
2022-10-22T05:41:09.786Z,1.12
2022-10-22T05:43:37.568Z,1.15
2022-10-22T05:46:06.746Z,1.14
2022-10-22T05:48:34.392Z,1.03
2022-10-22T05:51:02.847Z,0.99
2022-10-22T05:53:30.188Z,0.97
2022-10-22T05:56:00.426Z,0.84
2022-10-22T05:58:27.488Z,0.94
2022-10-22T06:00:54.608Z,0.88
2022-10-22T06:03:21.727Z,1.18
2022-10-22T06:05:48.869Z,1.21
2022-10-22T06:08:18.930Z,1.38
2022-10-22T06:10:46.466Z,1.46
2022-10-22T06:13:15.049Z,1.70
2022-10-22T06:15:42.128Z,1.81
2022-10-22T06:18:09.205Z,1.96
2022-10-22T06:20:36.309Z,2.08
2022-10-22T06:23:03.387Z,2.45
2022-10-22T06:25:30.516Z,2.38
2022-10-22T06:27:57.645Z,2.45
2022-10-22T06:30:26.188Z,1.94
2022-10-22T06:32:53.167Z,1.75
2022-10-22T06:35:20.186Z,1.57
2022-10-22T06:37:47.208Z,1.49
2022-10-22T06:40:14.535Z,1.47
2022-10-22T06:42:41.778Z,1.47
2022-10-22T06:45:10.727Z,1.19
2022-10-22T06:47:39.630Z,1.06
2022-10-22T06:50:08.369Z,1.03
2022-10-22T06:52:35.385Z,1.32
2022-10-22T06:55:02.456Z,0.94
2022-10-22T06:57:30.802Z,1.02
2022-10-22T06:59:57.867Z,1.22
2022-10-22T07:02:24.967Z,1.14
2022-10-22T07:04:53.447Z,0.99
2022-10-22T07:07:20.506Z,1.00
2022-10-22T07:09:47.526Z,1.08
2022-10-22T07:12:15.230Z,1.30
2022-10-22T07:14:42.375Z,1.33
2022-10-22T07:17:09.865Z,1.26
2022-10-22T07:19:37.287Z,1.30
2022-10-22T07:22:05.827Z,1.25
2022-10-22T07:24:33.007Z,1.26
2022-10-22T07:27:00.110Z,1.11
2022-10-22T07:29:27.326Z,1.14
2022-10-22T07:31:54.607Z,1.04
2022-10-22T07:34:21.722Z,1.05
2022-10-22T07:36:48.826Z,1.09
2022-10-22T07:39:17.346Z,1.10
2022-10-22T07:41:44.415Z,1.10
2022-10-22T07:44:11.769Z,1.33
2022-10-22T07:46:38.827Z,1.16
2022-10-22T07:49:05.890Z,1.09
2022-10-22T07:51:32.908Z,0.86
2022-10-22T07:53:59.948Z,0.94
2022-10-22T07:56:28.507Z,0.95
2022-10-22T07:58:55.555Z,0.84
2022-10-22T08:01:22.712Z,0.83
2022-10-22T08:03:49.812Z,0.82
2022-10-22T08:06:17.468Z,0.71
2022-10-22T08:08:45.533Z,0.80
2022-10-22T08:11:13.088Z,0.92
2022-10-22T08:13:45.629Z,0.99
2022-10-22T08:16:13.907Z,0.71
2022-10-22T08:18:41.007Z,0.85
2022-10-22T08:21:08.047Z,0.86
2022-10-22T08:23:35.167Z,0.91
2022-10-22T08:26:02.208Z,0.86
2022-10-22T08:28:29.387Z,0.91
2022-10-22T08:30:58.047Z,1.03
2022-10-22T08:33:25.116Z,0.90
2022-10-22T08:35:52.708Z,0.89
2022-10-22T08:38:20.506Z,0.92
2022-10-22T08:40:51.973Z,0.90
2022-10-22T08:43:46.489Z,0.82
2022-10-22T08:46:30.847Z,0.70
2022-10-22T08:49:02.050Z,0.65
2022-10-22T08:51:34.434Z,0.85
2022-10-22T08:54:22.727Z,0.80
2022-10-22T08:57:02.651Z,0.76
2022-10-22T08:59:39.650Z,0.79
2022-10-22T09:02:30.449Z,0.78
2022-10-22T09:05:13.567Z,0.76
2022-10-22T09:07:43.614Z,0.97
2022-10-22T09:10:13.489Z,0.71
2022-10-22T09:12:41.067Z,0.78
2022-10-22T09:15:14.188Z,0.76
2022-10-22T09:17:58.329Z,0.99
2022-10-22T09:20:32.408Z,0.72
2022-10-22T09:23:17.431Z,0.94
2022-10-22T09:25:45.769Z,0.85
2022-10-22T09:28:13.213Z,0.96
2022-10-22T09:30:40.408Z,0.63
2022-10-22T09:33:15.428Z,0.81
2022-10-22T09:35:47.988Z,0.75
2022-10-22T09:38:18.990Z,0.98
2022-10-22T09:40:49.309Z,0.77
2022-10-22T09:43:17.489Z,0.74
2022-10-22T09:45:45.807Z,0.73
2022-10-22T09:48:21.887Z,0.78
2022-10-22T09:50:55.110Z,0.58
2022-10-22T09:53:26.950Z,0.68
2022-10-22T09:55:57.195Z,0.71
2022-10-22T09:58:25.011Z,0.71
2022-10-22T10:00:56.188Z,0.75
2022-10-22T10:03:27.803Z,0.75
2022-10-22T10:06:01.483Z,0.71
2022-10-22T10:08:32.144Z,0.83
2022-10-22T10:11:07.749Z,0.75
2022-10-22T10:13:50.708Z,1.01
2022-10-22T10:16:35.809Z,0.79
2022-10-22T10:19:28.429Z,0.72
2022-10-22T10:22:10.449Z,0.81
2022-10-22T10:24:56.109Z,0.74
2022-10-22T10:27:34.168Z,0.84
2022-10-22T10:30:06.153Z,0.81
2022-10-22T10:32:56.308Z,0.58
2022-10-22T10:35:29.488Z,0.75
2022-10-22T10:38:14.349Z,0.74
2022-10-22T10:40:48.853Z,0.67
2022-10-22T10:43:24.531Z,0.90
2022-10-22T10:46:09.543Z,0.72
2022-10-22T10:48:49.369Z,0.84
2022-10-22T10:51:35.768Z,0.97
2022-10-22T10:54:27.516Z,0.80
2022-10-22T10:57:00.608Z,0.74
2022-10-22T10:59:42.349Z,1.09
2022-10-22T11:02:45.322Z,0.85
2022-10-22T11:05:30.790Z,0.81
2022-10-22T11:08:04.669Z,1.06
2022-10-22T11:10:39.288Z,0.95
2022-10-22T11:13:18.188Z,0.97
2022-10-22T11:15:52.788Z,1.17
2022-10-22T11:18:25.152Z,0.93
2022-10-22T11:21:19.010Z,0.90
2022-10-22T11:23:55.708Z,0.92
2022-10-22T11:26:36.268Z,0.86
2022-10-22T11:29:11.651Z,1.33
2022-10-22T11:31:41.108Z,1.28
2022-10-22T11:34:34.351Z,0.96
2022-10-22T11:37:04.527Z,0.95
2022-10-22T11:39:41.472Z,0.84
2022-10-22T11:42:12.109Z,0.76
2022-10-22T11:44:59.072Z,0.78
2022-10-22T11:47:28.468Z,0.93
2022-10-22T11:50:02.270Z,0.84
2022-10-22T11:52:41.495Z,0.89
2022-10-22T11:55:42.348Z,2.56
2022-10-22T11:58:31.407Z,1.08
2022-10-22T12:01:17.966Z,0.96
2022-10-22T12:03:49.726Z,0.82
2022-10-22T12:06:23.827Z,0.82
2022-10-22T12:08:59.609Z,0.80
2022-10-22T12:11:36.152Z,0.79
2022-10-22T12:14:17.427Z,0.70
2022-10-22T12:17:02.493Z,0.75
2022-10-22T12:19:32.752Z,0.79
2022-10-22T12:22:11.651Z,1.07
2022-10-22T12:24:41.787Z,1.59
2022-10-22T12:27:22.456Z,1.55
2022-10-22T12:29:55.647Z,1.19
2022-10-22T12:32:23.867Z,1.16
2022-10-22T12:34:52.991Z,1.18
2022-10-22T12:37:20.285Z,1.01
2022-10-22T12:39:47.706Z,0.94
2022-10-22T12:42:18.181Z,0.73
2022-10-22T12:44:45.387Z,0.70
2022-10-22T12:47:17.488Z,0.73
2022-10-22T12:49:48.149Z,0.75
2022-10-22T12:52:20.607Z,0.63
2022-10-22T12:54:50.176Z,0.60
2022-10-22T12:57:21.600Z,0.59
2022-10-22T12:59:52.097Z,0.81
2022-10-22T13:02:22.908Z,0.69
2022-10-22T13:05:24.256Z,0.75
2022-10-22T13:07:53.567Z,0.57
2022-10-22T13:10:25.548Z,0.63
2022-10-22T13:12:56.148Z,0.59
2022-10-22T13:15:35.887Z,0.64
2022-10-22T13:18:16.450Z,0.60
2022-10-22T13:20:55.610Z,0.64
2022-10-22T13:23:24.706Z,0.67
2022-10-22T13:26:00.318Z,5.28
2022-10-22T13:28:32.246Z,16.70
2022-10-22T13:31:01.547Z,15.27
2022-10-22T13:33:34.250Z,58.97
2022-10-22T13:36:02.467Z,65.65
2022-10-22T13:38:30.087Z,87.93
2022-10-22T13:40:57.807Z,114.51
2022-10-22T13:43:24.992Z,118.85
2022-10-22T13:45:58.227Z,115.43
2022-10-22T13:48:28.146Z,97.75
2022-10-22T13:50:55.306Z,83.04
2022-10-22T13:53:26.188Z,65.85
2022-10-22T13:55:54.039Z,46.96
2022-10-22T13:58:23.329Z,36.71
2022-10-22T14:00:55.425Z,29.68
2022-10-22T14:03:28.248Z,21.48
2022-10-22T14:05:56.187Z,18.20
2022-10-22T14:08:27.026Z,13.64
2022-10-22T14:10:54.766Z,11.29
2022-10-22T14:13:21.984Z,7.10
2022-10-22T14:15:52.193Z,4.21
2022-10-22T14:18:24.338Z,2.96
2022-10-22T14:20:55.046Z,2.43
2022-10-22T14:23:25.306Z,2.16
2022-10-22T14:25:52.686Z,2.04
2022-10-22T14:28:20.387Z,1.25
2022-10-22T14:30:47.628Z,1.23
2022-10-22T14:33:18.670Z,0.79
2022-10-22T14:35:47.912Z,0.84
2022-10-22T14:38:15.026Z,0.77
2022-10-22T14:40:44.135Z,0.85
2022-10-22T14:43:13.029Z,0.94
2022-10-22T14:45:40.088Z,0.94
2022-10-22T14:48:07.259Z,0.94
2022-10-22T14:50:34.666Z,0.95
2022-10-22T14:53:03.300Z,0.71
2022-10-22T14:55:30.386Z,0.68
2022-10-22T14:57:57.806Z,0.58
2022-10-22T15:00:24.952Z,0.69
2022-10-22T15:02:52.347Z,0.75
2022-10-22T15:05:19.510Z,0.79
2022-10-22T15:07:46.637Z,0.94
2022-10-22T15:10:15.147Z,0.96
2022-10-22T15:12:42.167Z,0.88
2022-10-22T15:15:10.152Z,0.96
2022-10-22T15:17:37.513Z,1.09
2022-10-22T15:20:05.891Z,0.92
2022-10-22T15:22:33.630Z,0.86
2022-10-22T15:25:01.014Z,1.00
2022-10-22T15:27:29.568Z,0.98
2022-10-22T15:29:56.726Z,0.93
2022-10-22T15:32:23.806Z,0.70
2022-10-22T15:34:53.597Z,0.70
2022-10-22T15:37:21.848Z,0.88
2022-10-22T15:39:49.128Z,1.47
2022-10-22T15:42:16.688Z,1.33
2022-10-22T15:44:45.649Z,1.20
2022-10-22T15:47:12.766Z,1.22
2022-10-22T15:49:40.671Z,0.97
2022-10-22T15:52:08.993Z,0.99
2022-10-22T15:54:36.593Z,1.20
2022-10-22T15:57:03.960Z,1.37
2022-10-22T15:59:31.252Z,1.46
2022-10-22T16:01:59.788Z,1.27
2022-10-22T16:04:26.872Z,1.14
2022-10-22T16:06:54.269Z,1.23
2022-10-22T16:09:23.930Z,1.87
2022-10-22T16:14:22.590Z,2.72
2022-10-22T16:16:52.420Z,2.22
2022-10-22T16:19:23.109Z,2.82
2022-10-22T16:21:51.514Z,2.75
2022-10-22T16:24:19.862Z,2.28
2022-10-22T16:26:47.830Z,2.60
2022-10-22T16:29:15.195Z,2.55
2022-10-22T16:31:42.367Z,2.60
2022-10-22T16:34:09.807Z,2.62
2022-10-22T16:36:39.214Z,2.39
2022-10-22T16:39:06.826Z,2.42
2022-10-22T16:41:34.470Z,2.52
2022-10-22T16:44:03.787Z,2.71
2022-10-22T16:46:31.765Z,2.86
2022-10-22T16:48:58.901Z,3.35
2022-10-22T16:51:28.381Z,3.95
2022-10-22T16:53:58.509Z,3.93
2022-10-22T16:56:26.288Z,3.47
2022-10-22T16:58:56.262Z,3.36
2022-10-22T17:01:25.890Z,3.53
2022-10-22T17:03:54.302Z,3.75
2022-10-22T17:06:23.705Z,3.21
2022-10-22T17:08:51.295Z,2.88
2022-10-22T17:11:22.242Z,3.09
2022-10-22T17:13:51.803Z,2.88
2022-10-22T17:16:20.883Z,2.88
2022-10-22T17:18:48.707Z,3.00
2022-10-22T17:21:17.224Z,3.16
2022-10-22T17:23:45.302Z,3.02
2022-10-22T17:26:16.046Z,3.26
2022-10-22T17:28:44.760Z,3.21
2022-10-22T17:31:17.804Z,3.60
2022-10-22T17:33:45.482Z,3.41
2022-10-22T17:36:13.820Z,3.74
2022-10-22T17:38:43.063Z,3.66
2022-10-22T17:41:15.241Z,3.47
2022-10-22T17:43:42.394Z,3.36
2022-10-22T17:46:16.242Z,3.39
2022-10-22T17:48:43.345Z,3.50
2022-10-22T17:51:12.681Z,3.32
2022-10-22T17:53:40.963Z,3.57
2022-10-22T17:56:09.681Z,3.52
2022-10-22T17:58:37.549Z,3.17
2022-10-22T18:01:06.301Z,3.03
2022-10-22T18:03:35.323Z,3.55
2022-10-22T18:06:07.836Z,4.53
2022-10-22T18:08:35.052Z,4.79
2022-10-22T18:11:06.762Z,4.57
2022-10-22T18:13:33.983Z,4.28
2022-10-22T18:16:01.083Z,4.74
2022-10-22T18:18:29.041Z,4.84
2022-10-22T18:20:57.943Z,4.29
2022-10-22T18:23:25.104Z,4.20
2022-10-22T18:25:52.485Z,3.91
2022-10-22T18:28:20.203Z,3.99
2022-10-22T18:30:49.285Z,4.13
2022-10-22T18:33:18.624Z,4.02
2022-10-22T18:35:46.863Z,4.40
2022-10-22T18:38:15.662Z,4.64
2022-10-22T18:40:45.981Z,4.08
2022-10-22T18:43:13.284Z,4.20
2022-10-22T18:45:42.884Z,4.16
2022-10-22T18:48:10.324Z,4.23
2022-10-22T18:50:37.383Z,4.27
2022-10-22T18:53:04.601Z,4.08
2022-10-22T18:55:34.381Z,3.94
2022-10-22T18:58:01.725Z,4.29
2022-10-22T19:00:28.822Z,4.13
2022-10-22T19:02:55.924Z,3.84
2022-10-22T19:05:23.083Z,3.85
2022-10-22T19:07:53.541Z,3.75
2022-10-22T19:10:21.023Z,4.03
2022-10-22T19:12:49.503Z,4.19
2022-10-22T19:15:16.807Z,3.93
2022-10-22T19:17:44.199Z,4.05
2022-10-22T19:20:11.583Z,3.87
2022-10-22T19:22:38.743Z,4.63
2022-10-22T19:25:09.702Z,4.59
2022-10-22T19:27:39.396Z,4.61
2022-10-22T19:30:09.826Z,4.94
2022-10-22T19:32:36.982Z,5.47
2022-10-22T19:35:05.022Z,6.40
2022-10-22T19:37:33.142Z,6.75
2022-10-22T19:40:00.380Z,7.46
2022-10-22T19:42:27.565Z,7.24
2022-10-22T19:44:54.701Z,6.88
2022-10-22T19:47:23.222Z,6.81
2022-10-22T19:49:50.323Z,6.46
2022-10-22T19:52:17.403Z,6.01
2022-10-22T19:54:44.522Z,5.62
2022-10-22T19:57:15.584Z,5.13
2022-10-22T19:59:42.904Z,4.90
2022-10-22T20:02:15.363Z,4.69
2022-10-22T20:04:49.144Z,4.38
2022-10-22T20:07:17.374Z,4.45
2022-10-22T20:09:44.584Z,4.40
2022-10-22T20:12:11.702Z,3.54
2022-10-22T20:14:40.204Z,3.19
2022-10-22T20:17:07.341Z,3.55
2022-10-22T20:19:34.461Z,3.62
2022-10-22T20:22:03.029Z,3.47
2022-10-22T20:24:30.543Z,3.39
2022-10-22T20:26:57.964Z,3.23
2022-10-22T20:29:25.065Z,3.49
2022-10-22T20:31:52.143Z,3.59
2022-10-22T20:34:19.201Z,3.78
2022-10-22T20:36:46.345Z,4.17
2022-10-22T20:39:15.821Z,4.48
2022-10-22T20:41:42.961Z,4.09
2022-10-22T20:44:15.659Z,4.45
2022-10-22T20:46:43.158Z,4.12
2022-10-22T20:49:13.047Z,3.37
2022-10-22T20:51:40.482Z,3.17
2022-10-22T20:54:08.823Z,3.68
2022-10-22T20:56:39.909Z,2.66
2022-10-22T20:59:09.304Z,2.36
2022-10-22T21:01:39.224Z,2.18
2022-10-22T21:04:07.194Z,2.49
2022-10-22T21:06:35.786Z,2.27
2022-10-22T21:09:03.167Z,2.29
2022-10-22T21:11:30.307Z,2.25
2022-10-22T21:13:59.016Z,2.40
2022-10-22T21:16:37.945Z,2.30
2022-10-22T21:19:09.607Z,2.38
2022-10-22T21:21:36.905Z,2.50
2022-10-22T21:24:04.703Z,2.54
2022-10-22T21:26:31.983Z,3.11
2022-10-22T21:29:00.643Z,2.53
2022-10-22T21:31:27.701Z,2.68
2022-10-22T21:33:55.082Z,2.08
2022-10-22T21:36:24.067Z,1.75
2022-10-22T21:38:52.844Z,1.85
2022-10-22T21:41:22.096Z,1.57
2022-10-22T21:43:49.765Z,1.46
2022-10-22T21:46:20.282Z,1.25
2022-10-22T21:48:48.226Z,1.53
2022-10-22T21:51:17.886Z,1.91
2022-10-22T21:53:45.653Z,1.17
2022-10-22T21:56:15.184Z,1.23
2022-10-22T21:58:43.225Z,1.19
2022-10-22T22:01:10.993Z,1.33
2022-10-22T22:03:41.951Z,1.27
2022-10-22T22:06:09.143Z,1.50
2022-10-22T22:08:36.439Z,1.54
2022-10-22T22:11:05.993Z,1.58
2022-10-22T22:13:34.423Z,1.55
2022-10-22T22:16:03.503Z,1.65
2022-10-22T22:18:32.222Z,1.61
2022-10-22T22:21:03.684Z,1.70
2022-10-22T22:23:30.823Z,2.14
2022-10-22T22:25:59.345Z,1.57
2022-10-22T22:28:26.745Z,1.84
2022-10-22T22:30:53.842Z,2.07
2022-10-22T22:33:20.882Z,2.12
2022-10-22T22:35:47.949Z,1.97
2022-10-22T22:38:16.568Z,2.39
2022-10-22T22:40:44.283Z,2.68
2022-10-22T22:43:12.404Z,2.45
2022-10-22T22:45:39.483Z,2.65
2022-10-22T22:48:07.421Z,2.55
2022-10-22T22:50:35.697Z,2.55
2022-10-22T22:53:02.869Z,2.65
2022-10-22T22:55:31.426Z,2.66
2022-10-22T22:57:58.824Z,2.26
2022-10-22T23:00:26.070Z,2.40
2022-10-22T23:02:54.926Z,2.61
2022-10-22T23:05:21.923Z,2.56
2022-10-22T23:07:48.985Z,2.29
2022-10-22T23:10:16.414Z,2.22
2022-10-22T23:12:45.086Z,2.24
2022-10-22T23:15:12.583Z,1.97
2022-10-22T23:17:39.683Z,2.20
2022-10-22T23:20:08.063Z,2.42
2022-10-22T23:22:35.162Z,2.30
2022-10-22T23:25:02.225Z,2.60
2022-10-22T23:27:29.440Z,2.47
2022-10-22T23:29:58.042Z,2.46
2022-10-22T23:32:25.164Z,2.45
2022-10-22T23:34:52.222Z,2.43
2022-10-22T23:37:19.342Z,2.29
2022-10-22T23:39:46.385Z,1.97
2022-10-22T23:42:13.501Z,2.18
2022-10-22T23:44:40.700Z,2.41
2022-10-22T23:47:09.205Z,2.38
2022-10-22T23:49:36.302Z,2.50
2022-10-22T23:52:03.421Z,2.53
2022-10-22T23:54:30.582Z,2.65
2022-10-22T23:56:57.642Z,2.23
2022-10-22T23:59:29.736Z,2.28
